sensor_id;sensor_type;location;lat;lon;timestamp;temperature;humidity
52415;DHT22;38340;52.964;6.086;2024-01-11T00:00:50;-5.50;99.90
52415;DHT22;38340;52.964;6.086;2024-01-11T00:03:16;-5.50;99.90
52415;DHT22;38340;52.964;6.086;2024-01-11T00:05:42;-5.50;99.90
52415;DHT22;38340;52.964;6.086;2024-01-11T00:08:08;-5.50;99.90
52415;DHT22;38340;52.964;6.086;2024-01-11T00:10:34;-5.60;99.90
52415;DHT22;38340;52.964;6.086;2024-01-11T00:12:59;-5.50;99.90
52415;DHT22;38340;52.964;6.086;2024-01-11T00:15:25;-5.50;99.90
52415;DHT22;38340;52.964;6.086;2024-01-11T00:17:51;-5.50;99.90
52415;DHT22;38340;52.964;6.086;2024-01-11T00:20:16;-5.60;99.90
52415;DHT22;38340;52.964;6.086;2024-01-11T00:22:42;-5.60;99.90
52415;DHT22;38340;52.964;6.086;2024-01-11T00:25:08;-5.50;99.90
52415;DHT22;38340;52.964;6.086;2024-01-11T00:27:34;-5.50;99.90
52415;DHT22;38340;52.964;6.086;2024-01-11T00:29:59;-5.50;99.90
52415;DHT22;38340;52.964;6.086;2024-01-11T00:32:25;-5.50;99.90
52415;DHT22;38340;52.964;6.086;2024-01-11T00:34:51;-5.60;99.90
52415;DHT22;38340;52.964;6.086;2024-01-11T00:37:18;-5.60;99.90
52415;DHT22;38340;52.964;6.086;2024-01-11T00:39:43;-5.60;99.90
52415;DHT22;38340;52.964;6.086;2024-01-11T00:42:09;-5.60;99.90
52415;DHT22;38340;52.964;6.086;2024-01-11T00:44:35;-5.60;99.90
52415;DHT22;38340;52.964;6.086;2024-01-11T00:47:00;-5.60;99.90
52415;DHT22;38340;52.964;6.086;2024-01-11T00:49:26;-5.60;99.90
52415;DHT22;38340;52.964;6.086;2024-01-11T00:51:51;-5.60;99.90
52415;DHT22;38340;52.964;6.086;2024-01-11T00:54:17;-5.60;99.90
52415;DHT22;38340;52.964;6.086;2024-01-11T00:56:43;-5.60;99.90
52415;DHT22;38340;52.964;6.086;2024-01-11T00:59:08;-5.60;99.90
52415;DHT22;38340;52.964;6.086;2024-01-11T01:01:34;-5.70;99.90
52415;DHT22;38340;52.964;6.086;2024-01-11T01:04:00;-5.70;99.90
52415;DHT22;38340;52.964;6.086;2024-01-11T01:06:25;-5.70;99.90
52415;DHT22;38340;52.964;6.086;2024-01-11T01:08:51;-5.70;99.90
52415;DHT22;38340;52.964;6.086;2024-01-11T01:11:17;-5.70;99.90
52415;DHT22;38340;52.964;6.086;2024-01-11T01:13:43;-5.70;99.90
52415;DHT22;38340;52.964;6.086;2024-01-11T01:16:08;-5.70;99.90
52415;DHT22;38340;52.964;6.086;2024-01-11T01:18:34;-5.80;99.90
52415;DHT22;38340;52.964;6.086;2024-01-11T01:20:59;-5.80;99.90
52415;DHT22;38340;52.964;6.086;2024-01-11T01:23:25;-5.80;99.90
52415;DHT22;38340;52.964;6.086;2024-01-11T01:25:51;-5.80;99.90
52415;DHT22;38340;52.964;6.086;2024-01-11T01:28:16;-5.80;99.90
52415;DHT22;38340;52.964;6.086;2024-01-11T01:30:42;-5.90;99.90
52415;DHT22;38340;52.964;6.086;2024-01-11T01:33:08;-5.90;99.90
52415;DHT22;38340;52.964;6.086;2024-01-11T01:35:33;-5.90;99.90
52415;DHT22;38340;52.964;6.086;2024-01-11T01:38:00;-5.90;99.90
52415;DHT22;38340;52.964;6.086;2024-01-11T01:40:26;-5.90;99.90
52415;DHT22;38340;52.964;6.086;2024-01-11T01:42:58;-5.90;99.90
52415;DHT22;38340;52.964;6.086;2024-01-11T01:45:24;-5.90;99.90
52415;DHT22;38340;52.964;6.086;2024-01-11T01:47:49;-6.00;99.90
52415;DHT22;38340;52.964;6.086;2024-01-11T01:50:15;-6.00;99.90
52415;DHT22;38340;52.964;6.086;2024-01-11T01:52:42;-6.00;99.90
52415;DHT22;38340;52.964;6.086;2024-01-11T01:55:10;-6.10;99.90
52415;DHT22;38340;52.964;6.086;2024-01-11T01:57:38;-6.10;99.90
52415;DHT22;38340;52.964;6.086;2024-01-11T02:00:05;-6.20;99.90
52415;DHT22;38340;52.964;6.086;2024-01-11T02:02:31;-6.20;99.90
52415;DHT22;38340;52.964;6.086;2024-01-11T02:04:58;-6.30;99.90
52415;DHT22;38340;52.964;6.086;2024-01-11T02:07:24;-6.30;99.90
52415;DHT22;38340;52.964;6.086;2024-01-11T02:09:50;-6.30;99.90
52415;DHT22;38340;52.964;6.086;2024-01-11T02:12:17;-6.40;99.90
52415;DHT22;38340;52.964;6.086;2024-01-11T02:14:43;-6.30;99.90
52415;DHT22;38340;52.964;6.086;2024-01-11T02:17:09;-6.30;99.90
52415;DHT22;38340;52.964;6.086;2024-01-11T02:19:35;-6.40;99.90
52415;DHT22;38340;52.964;6.086;2024-01-11T02:22:06;-6.40;99.90
52415;DHT22;38340;52.964;6.086;2024-01-11T02:24:33;-6.40;99.90
52415;DHT22;38340;52.964;6.086;2024-01-11T02:27:00;-6.40;99.90
52415;DHT22;38340;52.964;6.086;2024-01-11T02:29:26;-6.40;99.90
52415;DHT22;38340;52.964;6.086;2024-01-11T02:31:52;-6.50;99.90
52415;DHT22;38340;52.964;6.086;2024-01-11T02:34:18;-6.50;99.90
52415;DHT22;38340;52.964;6.086;2024-01-11T02:36:44;-6.50;99.90
52415;DHT22;38340;52.964;6.086;2024-01-11T02:39:11;-6.60;99.90
52415;DHT22;38340;52.964;6.086;2024-01-11T02:41:37;-6.60;99.90
52415;DHT22;38340;52.964;6.086;2024-01-11T02:44:03;-6.60;99.90
52415;DHT22;38340;52.964;6.086;2024-01-11T02:46:30;-6.70;99.90
52415;DHT22;38340;52.964;6.086;2024-01-11T02:48:56;-6.70;99.90
52415;DHT22;38340;52.964;6.086;2024-01-11T02:51:21;-6.70;99.90
52415;DHT22;38340;52.964;6.086;2024-01-11T02:53:47;-6.60;99.90
52415;DHT22;38340;52.964;6.086;2024-01-11T02:56:13;-6.60;99.90
52415;DHT22;38340;52.964;6.086;2024-01-11T02:58:38;-6.50;99.90
52415;DHT22;38340;52.964;6.086;2024-01-11T03:01:04;-6.50;99.90
52415;DHT22;38340;52.964;6.086;2024-01-11T03:03:29;-6.50;99.90
52415;DHT22;38340;52.964;6.086;2024-01-11T03:05:55;-6.50;99.90
52415;DHT22;38340;52.964;6.086;2024-01-11T03:08:21;-6.50;99.90
52415;DHT22;38340;52.964;6.086;2024-01-11T03:10:47;-6.50;99.90
52415;DHT22;38340;52.964;6.086;2024-01-11T03:13:12;-6.50;99.90
52415;DHT22;38340;52.964;6.086;2024-01-11T03:15:38;-6.50;99.90
52415;DHT22;38340;52.964;6.086;2024-01-11T03:18:04;-6.50;99.90
52415;DHT22;38340;52.964;6.086;2024-01-11T03:20:30;-6.50;99.90
52415;DHT22;38340;52.964;6.086;2024-01-11T03:22:55;-6.60;99.90
52415;DHT22;38340;52.964;6.086;2024-01-11T03:25:21;-6.70;99.90
52415;DHT22;38340;52.964;6.086;2024-01-11T03:27:47;-6.70;99.90
52415;DHT22;38340;52.964;6.086;2024-01-11T03:30:13;-6.70;99.90
52415;DHT22;38340;52.964;6.086;2024-01-11T03:32:38;-6.80;99.90
52415;DHT22;38340;52.964;6.086;2024-01-11T03:35:08;-6.80;99.90
52415;DHT22;38340;52.964;6.086;2024-01-11T03:37:34;-6.80;99.90
52415;DHT22;38340;52.964;6.086;2024-01-11T03:40:00;-6.80;99.90
52415;DHT22;38340;52.964;6.086;2024-01-11T03:42:26;-6.70;99.90
52415;DHT22;38340;52.964;6.086;2024-01-11T03:44:52;-6.70;99.90
52415;DHT22;38340;52.964;6.086;2024-01-11T03:47:18;-6.70;99.90
52415;DHT22;38340;52.964;6.086;2024-01-11T03:49:44;-6.70;99.90
52415;DHT22;38340;52.964;6.086;2024-01-11T03:52:09;-6.70;99.90
52415;DHT22;38340;52.964;6.086;2024-01-11T03:54:35;-6.70;99.90
52415;DHT22;38340;52.964;6.086;2024-01-11T03:57:01;-6.60;99.90
52415;DHT22;38340;52.964;6.086;2024-01-11T03:59:27;-6.70;99.90
52415;DHT22;38340;52.964;6.086;2024-01-11T04:01:53;-6.70;99.90
52415;DHT22;38340;52.964;6.086;2024-01-11T04:04:19;-6.80;99.90
52415;DHT22;38340;52.964;6.086;2024-01-11T04:06:45;-6.80;99.90
52415;DHT22;38340;52.964;6.086;2024-01-11T04:09:11;-6.90;99.90
52415;DHT22;38340;52.964;6.086;2024-01-11T04:11:37;-6.90;99.90
52415;DHT22;38340;52.964;6.086;2024-01-11T04:14:02;-6.90;99.90
52415;DHT22;38340;52.964;6.086;2024-01-11T04:16:28;-6.90;99.90
52415;DHT22;38340;52.964;6.086;2024-01-11T04:18:54;-6.90;99.90
52415;DHT22;38340;52.964;6.086;2024-01-11T04:21:27;-6.90;99.90
52415;DHT22;38340;52.964;6.086;2024-01-11T04:23:54;-6.90;99.90
52415;DHT22;38340;52.964;6.086;2024-01-11T04:26:20;-7.00;99.90
52415;DHT22;38340;52.964;6.086;2024-01-11T04:28:46;-7.00;99.90
52415;DHT22;38340;52.964;6.086;2024-01-11T04:31:14;-7.10;99.90
52415;DHT22;38340;52.964;6.086;2024-01-11T04:33:46;-7.10;99.90
52415;DHT22;38340;52.964;6.086;2024-01-11T04:36:12;-7.10;99.90
52415;DHT22;38340;52.964;6.086;2024-01-11T04:38:39;-7.20;99.90
52415;DHT22;38340;52.964;6.086;2024-01-11T04:41:22;-7.20;99.90
52415;DHT22;38340;52.964;6.086;2024-01-11T04:43:48;-7.20;99.90
52415;DHT22;38340;52.964;6.086;2024-01-11T04:46:21;-7.20;99.90
52415;DHT22;38340;52.964;6.086;2024-01-11T04:48:47;-7.20;99.90
52415;DHT22;38340;52.964;6.086;2024-01-11T04:51:15;-7.20;99.90
52415;DHT22;38340;52.964;6.086;2024-01-11T04:53:42;-7.20;99.90
52415;DHT22;38340;52.964;6.086;2024-01-11T04:56:09;-7.20;99.90
52415;DHT22;38340;52.964;6.086;2024-01-11T04:58:35;-7.20;99.90
52415;DHT22;38340;52.964;6.086;2024-01-11T05:01:04;-7.30;99.90
52415;DHT22;38340;52.964;6.086;2024-01-11T05:03:30;-7.30;99.90
52415;DHT22;38340;52.964;6.086;2024-01-11T05:06:00;-7.30;99.90
52415;DHT22;38340;52.964;6.086;2024-01-11T05:08:26;-7.30;99.90
52415;DHT22;38340;52.964;6.086;2024-01-11T05:10:52;-7.30;99.90
52415;DHT22;38340;52.964;6.086;2024-01-11T05:13:18;-7.30;99.90
52415;DHT22;38340;52.964;6.086;2024-01-11T05:15:44;-7.20;99.90
52415;DHT22;38340;52.964;6.086;2024-01-11T05:18:10;-7.10;99.90
52415;DHT22;38340;52.964;6.086;2024-01-11T05:20:36;-6.90;99.90
52415;DHT22;38340;52.964;6.086;2024-01-11T05:23:02;-6.90;99.90
52415;DHT22;38340;52.964;6.086;2024-01-11T05:25:28;-6.70;99.90
52415;DHT22;38340;52.964;6.086;2024-01-11T05:27:53;-6.60;99.90
52415;DHT22;38340;52.964;6.086;2024-01-11T05:30:19;-6.50;99.90
52415;DHT22;38340;52.964;6.086;2024-01-11T05:32:45;-6.40;99.90
52415;DHT22;38340;52.964;6.086;2024-01-11T05:35:10;-6.30;99.90
52415;DHT22;38340;52.964;6.086;2024-01-11T05:37:36;-6.20;99.90
52415;DHT22;38340;52.964;6.086;2024-01-11T05:40:02;-6.10;99.90
52415;DHT22;38340;52.964;6.086;2024-01-11T05:42:28;-6.10;99.90
52415;DHT22;38340;52.964;6.086;2024-01-11T05:44:54;-6.00;99.90
52415;DHT22;38340;52.964;6.086;2024-01-11T05:47:19;-5.90;99.90
52415;DHT22;38340;52.964;6.086;2024-01-11T05:49:45;-5.80;99.90
52415;DHT22;38340;52.964;6.086;2024-01-11T05:52:11;-5.80;99.90
52415;DHT22;38340;52.964;6.086;2024-01-11T05:54:36;-5.70;99.90
52415;DHT22;38340;52.964;6.086;2024-01-11T05:57:02;-5.60;99.90
52415;DHT22;38340;52.964;6.086;2024-01-11T05:59:28;-5.50;99.90
52415;DHT22;38340;52.964;6.086;2024-01-11T06:01:53;-5.40;99.90
52415;DHT22;38340;52.964;6.086;2024-01-11T06:04:19;-5.40;99.90
52415;DHT22;38340;52.964;6.086;2024-01-11T06:06:45;-5.30;99.90
52415;DHT22;38340;52.964;6.086;2024-01-11T06:09:10;-5.20;99.90
52415;DHT22;38340;52.964;6.086;2024-01-11T06:11:36;-5.20;99.90
52415;DHT22;38340;52.964;6.086;2024-01-11T06:14:02;-5.10;99.90
52415;DHT22;38340;52.964;6.086;2024-01-11T06:16:28;-5.00;99.90
52415;DHT22;38340;52.964;6.086;2024-01-11T06:18:54;-4.80;99.90
52415;DHT22;38340;52.964;6.086;2024-01-11T06:21:20;-4.90;99.90
52415;DHT22;38340;52.964;6.086;2024-01-11T06:23:45;-4.80;99.90
52415;DHT22;38340;52.964;6.086;2024-01-11T06:26:11;-4.70;99.90
52415;DHT22;38340;52.964;6.086;2024-01-11T06:28:37;-4.70;99.90
52415;DHT22;38340;52.964;6.086;2024-01-11T06:31:03;-4.70;99.90
52415;DHT22;38340;52.964;6.086;2024-01-11T06:33:29;-4.60;99.90
52415;DHT22;38340;52.964;6.086;2024-01-11T06:35:55;-4.60;99.90
52415;DHT22;38340;52.964;6.086;2024-01-11T06:38:21;-4.60;99.90
52415;DHT22;38340;52.964;6.086;2024-01-11T06:40:48;-4.50;99.90
52415;DHT22;38340;52.964;6.086;2024-01-11T06:43:14;-4.40;99.90
52415;DHT22;38340;52.964;6.086;2024-01-11T06:45:44;-4.40;99.90
52415;DHT22;38340;52.964;6.086;2024-01-11T06:48:09;-4.40;99.90
52415;DHT22;38340;52.964;6.086;2024-01-11T06:50:35;-4.30;99.90
52415;DHT22;38340;52.964;6.086;2024-01-11T06:53:01;-4.30;99.90
52415;DHT22;38340;52.964;6.086;2024-01-11T06:55:27;-4.20;99.90
52415;DHT22;38340;52.964;6.086;2024-01-11T06:57:53;-4.20;99.90
52415;DHT22;38340;52.964;6.086;2024-01-11T07:00:19;-4.10;99.90
52415;DHT22;38340;52.964;6.086;2024-01-11T07:02:45;-4.10;99.90
52415;DHT22;38340;52.964;6.086;2024-01-11T07:05:11;-4.00;99.90
52415;DHT22;38340;52.964;6.086;2024-01-11T07:07:37;-4.00;99.90
52415;DHT22;38340;52.964;6.086;2024-01-11T07:10:03;-3.90;99.90
52415;DHT22;38340;52.964;6.086;2024-01-11T07:12:31;-3.90;99.90
52415;DHT22;38340;52.964;6.086;2024-01-11T07:14:57;-3.80;99.90
52415;DHT22;38340;52.964;6.086;2024-01-11T07:17:22;-3.80;99.90
52415;DHT22;38340;52.964;6.086;2024-01-11T07:19:49;-3.80;99.90
52415;DHT22;38340;52.964;6.086;2024-01-11T07:22:14;-3.70;99.90
52415;DHT22;38340;52.964;6.086;2024-01-11T07:24:40;-3.70;99.90
52415;DHT22;38340;52.964;6.086;2024-01-11T07:27:06;-3.70;99.90
52415;DHT22;38340;52.964;6.086;2024-01-11T07:29:33;-3.70;99.90
52415;DHT22;38340;52.964;6.086;2024-01-11T07:31:59;-3.60;99.90
52415;DHT22;38340;52.964;6.086;2024-01-11T07:34:25;-3.60;99.90
52415;DHT22;38340;52.964;6.086;2024-01-11T07:36:52;-3.60;99.90
52415;DHT22;38340;52.964;6.086;2024-01-11T07:39:18;-3.60;99.90
52415;DHT22;38340;52.964;6.086;2024-01-11T07:41:44;-3.60;99.90
52415;DHT22;38340;52.964;6.086;2024-01-11T07:44:09;-3.50;99.90
52415;DHT22;38340;52.964;6.086;2024-01-11T07:46:35;-3.40;99.90
52415;DHT22;38340;52.964;6.086;2024-01-11T07:49:02;-3.40;99.90
52415;DHT22;38340;52.964;6.086;2024-01-11T07:51:28;-3.40;99.90
52415;DHT22;38340;52.964;6.086;2024-01-11T07:53:54;-3.40;99.90
52415;DHT22;38340;52.964;6.086;2024-01-11T07:56:19;-3.30;99.90
52415;DHT22;38340;52.964;6.086;2024-01-11T07:58:45;-3.30;99.90
52415;DHT22;38340;52.964;6.086;2024-01-11T08:01:11;-3.20;99.90
52415;DHT22;38340;52.964;6.086;2024-01-11T08:03:38;-3.20;99.90
52415;DHT22;38340;52.964;6.086;2024-01-11T08:06:04;-3.20;99.90
52415;DHT22;38340;52.964;6.086;2024-01-11T08:08:33;-3.10;99.90
52415;DHT22;38340;52.964;6.086;2024-01-11T08:10:59;-3.10;99.90
52415;DHT22;38340;52.964;6.086;2024-01-11T08:13:25;-3.10;99.90
52415;DHT22;38340;52.964;6.086;2024-01-11T08:15:50;-3.00;99.90
52415;DHT22;38340;52.964;6.086;2024-01-11T08:18:18;-3.00;99.90
52415;DHT22;38340;52.964;6.086;2024-01-11T08:20:44;-2.90;99.90
52415;DHT22;38340;52.964;6.086;2024-01-11T08:23:10;-2.90;99.90
52415;DHT22;38340;52.964;6.086;2024-01-11T08:25:36;-2.90;99.90
52415;DHT22;38340;52.964;6.086;2024-01-11T08:28:01;-2.80;99.90
52415;DHT22;38340;52.964;6.086;2024-01-11T08:30:28;-2.80;99.90
52415;DHT22;38340;52.964;6.086;2024-01-11T08:32:54;-2.80;99.90
52415;DHT22;38340;52.964;6.086;2024-01-11T08:35:21;-2.70;99.90
52415;DHT22;38340;52.964;6.086;2024-01-11T08:37:47;-2.70;99.90
52415;DHT22;38340;52.964;6.086;2024-01-11T08:40:13;-2.70;99.90
52415;DHT22;38340;52.964;6.086;2024-01-11T08:42:39;-2.60;99.90
52415;DHT22;38340;52.964;6.086;2024-01-11T08:45:06;-2.60;99.90
52415;DHT22;38340;52.964;6.086;2024-01-11T08:47:35;-2.50;99.90
52415;DHT22;38340;52.964;6.086;2024-01-11T08:50:04;-2.50;99.90
52415;DHT22;38340;52.964;6.086;2024-01-11T08:52:32;-2.40;99.90
52415;DHT22;38340;52.964;6.086;2024-01-11T08:54:58;-2.40;99.90
52415;DHT22;38340;52.964;6.086;2024-01-11T08:57:24;-2.30;99.90
52415;DHT22;38340;52.964;6.086;2024-01-11T08:59:50;-2.30;99.90
52415;DHT22;38340;52.964;6.086;2024-01-11T09:02:15;-2.20;99.90
52415;DHT22;38340;52.964;6.086;2024-01-11T09:04:41;-2.20;99.90
52415;DHT22;38340;52.964;6.086;2024-01-11T09:07:07;-2.10;99.90
52415;DHT22;38340;52.964;6.086;2024-01-11T09:09:32;-2.10;99.90
52415;DHT22;38340;52.964;6.086;2024-01-11T09:11:58;-2.00;99.90
52415;DHT22;38340;52.964;6.086;2024-01-11T09:14:24;-1.90;99.90
52415;DHT22;38340;52.964;6.086;2024-01-11T09:16:49;-1.90;99.90
52415;DHT22;38340;52.964;6.086;2024-01-11T09:19:15;-1.90;99.90
52415;DHT22;38340;52.964;6.086;2024-01-11T09:21:41;-1.80;99.90
52415;DHT22;38340;52.964;6.086;2024-01-11T09:24:07;-1.70;99.90
52415;DHT22;38340;52.964;6.086;2024-01-11T09:26:33;-1.70;99.90
52415;DHT22;38340;52.964;6.086;2024-01-11T09:29:00;-1.60;99.90
52415;DHT22;38340;52.964;6.086;2024-01-11T09:31:26;-1.60;99.90
52415;DHT22;38340;52.964;6.086;2024-01-11T09:33:52;-1.50;99.90
52415;DHT22;38340;52.964;6.086;2024-01-11T09:36:18;-1.50;99.90
52415;DHT22;38340;52.964;6.086;2024-01-11T09:38:44;-1.40;99.90
52415;DHT22;38340;52.964;6.086;2024-01-11T09:41:12;-1.30;99.90
52415;DHT22;38340;52.964;6.086;2024-01-11T09:43:41;-1.30;99.90
52415;DHT22;38340;52.964;6.086;2024-01-11T09:46:06;-1.20;99.90
52415;DHT22;38340;52.964;6.086;2024-01-11T09:48:33;-1.20;99.90
52415;DHT22;38340;52.964;6.086;2024-01-11T09:51:08;-1.10;99.90
52415;DHT22;38340;52.964;6.086;2024-01-11T09:53:36;-1.00;99.90
52415;DHT22;38340;52.964;6.086;2024-01-11T09:56:08;-1.00;99.90
52415;DHT22;38340;52.964;6.086;2024-01-11T09:58:34;-1.00;99.90
52415;DHT22;38340;52.964;6.086;2024-01-11T10:01:03;-0.80;99.90
52415;DHT22;38340;52.964;6.086;2024-01-11T10:03:32;-0.80;99.90
52415;DHT22;38340;52.964;6.086;2024-01-11T10:05:58;-0.80;99.90
52415;DHT22;38340;52.964;6.086;2024-01-11T10:08:26;-0.60;99.90
52415;DHT22;38340;52.964;6.086;2024-01-11T10:10:52;-0.60;99.90
52415;DHT22;38340;52.964;6.086;2024-01-11T10:13:18;-0.50;99.90
52415;DHT22;38340;52.964;6.086;2024-01-11T10:15:44;-0.50;99.90
52415;DHT22;38340;52.964;6.086;2024-01-11T10:18:10;-0.40;99.90
52415;DHT22;38340;52.964;6.086;2024-01-11T10:20:36;-0.50;99.90
52415;DHT22;38340;52.964;6.086;2024-01-11T10:23:03;-0.30;99.90
52415;DHT22;38340;52.964;6.086;2024-01-11T10:25:29;-0.30;99.90
52415;DHT22;38340;52.964;6.086;2024-01-11T10:27:55;-0.30;99.90
52415;DHT22;38340;52.964;6.086;2024-01-11T10:30:21;-0.30;99.90
52415;DHT22;38340;52.964;6.086;2024-01-11T10:32:48;-0.20;99.90
52415;DHT22;38340;52.964;6.086;2024-01-11T10:35:15;-0.10;99.90
52415;DHT22;38340;52.964;6.086;2024-01-11T10:37:43;-0.10;99.90
52415;DHT22;38340;52.964;6.086;2024-01-11T10:40:10;-0.10;99.90
52415;DHT22;38340;52.964;6.086;2024-01-11T10:42:44;-0.10;99.90
52415;DHT22;38340;52.964;6.086;2024-01-11T10:45:20;0.00;99.90
52415;DHT22;38340;52.964;6.086;2024-01-11T10:50:12;0.00;99.90
52415;DHT22;38340;52.964;6.086;2024-01-11T10:52:43;0.00;99.90
52415;DHT22;38340;52.964;6.086;2024-01-11T10:55:14;0.00;99.90
52415;DHT22;38340;52.964;6.086;2024-01-11T10:57:41;0.10;99.90
52415;DHT22;38340;52.964;6.086;2024-01-11T11:00:07;0.10;99.90
52415;DHT22;38340;52.964;6.086;2024-01-11T11:02:37;0.10;99.90
52415;DHT22;38340;52.964;6.086;2024-01-11T11:05:05;0.10;99.90
52415;DHT22;38340;52.964;6.086;2024-01-11T11:07:33;0.20;99.90
52415;DHT22;38340;52.964;6.086;2024-01-11T11:09:59;0.20;99.90
52415;DHT22;38340;52.964;6.086;2024-01-11T11:12:26;0.30;99.90
52415;DHT22;38340;52.964;6.086;2024-01-11T11:14:53;0.30;99.90
52415;DHT22;38340;52.964;6.086;2024-01-11T11:17:20;0.30;99.90
52415;DHT22;38340;52.964;6.086;2024-01-11T11:19:45;0.30;99.90
52415;DHT22;38340;52.964;6.086;2024-01-11T11:22:13;0.40;99.90
52415;DHT22;38340;52.964;6.086;2024-01-11T11:24:40;0.40;99.90
52415;DHT22;38340;52.964;6.086;2024-01-11T11:27:06;0.50;99.90
52415;DHT22;38340;52.964;6.086;2024-01-11T11:29:32;0.50;99.90
52415;DHT22;38340;52.964;6.086;2024-01-11T11:31:58;0.50;99.90
52415;DHT22;38340;52.964;6.086;2024-01-11T11:34:41;0.50;99.90
52415;DHT22;38340;52.964;6.086;2024-01-11T11:37:08;0.60;99.90
52415;DHT22;38340;52.964;6.086;2024-01-11T11:39:34;0.60;99.90
52415;DHT22;38340;52.964;6.086;2024-01-11T11:42:00;0.70;99.90
52415;DHT22;38340;52.964;6.086;2024-01-11T11:44:27;0.70;99.90
52415;DHT22;38340;52.964;6.086;2024-01-11T11:46:52;0.70;99.90
52415;DHT22;38340;52.964;6.086;2024-01-11T11:49:19;0.70;99.90
52415;DHT22;38340;52.964;6.086;2024-01-11T11:51:44;0.80;99.90
52415;DHT22;38340;52.964;6.086;2024-01-11T11:54:10;0.80;99.90
52415;DHT22;38340;52.964;6.086;2024-01-11T11:56:36;0.80;99.90
52415;DHT22;38340;52.964;6.086;2024-01-11T11:59:03;0.90;99.90
52415;DHT22;38340;52.964;6.086;2024-01-11T12:01:29;0.90;99.90
52415;DHT22;38340;52.964;6.086;2024-01-11T12:03:57;0.90;99.90
52415;DHT22;38340;52.964;6.086;2024-01-11T12:06:23;0.90;99.90
52415;DHT22;38340;52.964;6.086;2024-01-11T12:08:52;1.00;99.90
52415;DHT22;38340;52.964;6.086;2024-01-11T12:11:19;1.00;99.90
52415;DHT22;38340;52.964;6.086;2024-01-11T12:13:47;1.00;99.90
52415;DHT22;38340;52.964;6.086;2024-01-11T12:16:13;1.00;99.90
52415;DHT22;38340;52.964;6.086;2024-01-11T12:18:40;1.10;99.90
52415;DHT22;38340;52.964;6.086;2024-01-11T12:21:07;1.10;99.90
52415;DHT22;38340;52.964;6.086;2024-01-11T12:23:34;1.10;99.90
52415;DHT22;38340;52.964;6.086;2024-01-11T12:26:03;1.10;99.90
52415;DHT22;38340;52.964;6.086;2024-01-11T12:28:33;1.10;99.90
52415;DHT22;38340;52.964;6.086;2024-01-11T12:30:59;1.10;99.90
52415;DHT22;38340;52.964;6.086;2024-01-11T12:33:26;1.10;99.90
52415;DHT22;38340;52.964;6.086;2024-01-11T12:35:53;1.00;99.90
52415;DHT22;38340;52.964;6.086;2024-01-11T12:38:19;1.10;99.90
52415;DHT22;38340;52.964;6.086;2024-01-11T12:40:46;1.00;99.90
52415;DHT22;38340;52.964;6.086;2024-01-11T12:43:12;1.00;99.90
52415;DHT22;38340;52.964;6.086;2024-01-11T12:45:39;1.00;99.90
52415;DHT22;38340;52.964;6.086;2024-01-11T12:48:07;1.00;99.90
52415;DHT22;38340;52.964;6.086;2024-01-11T12:50:34;1.00;99.90
52415;DHT22;38340;52.964;6.086;2024-01-11T12:53:11;1.10;99.90
52415;DHT22;38340;52.964;6.086;2024-01-11T12:55:48;1.10;99.90
52415;DHT22;38340;52.964;6.086;2024-01-11T12:58:19;1.10;99.90
52415;DHT22;38340;52.964;6.086;2024-01-11T13:00:45;1.10;99.90
52415;DHT22;38340;52.964;6.086;2024-01-11T13:03:11;1.10;99.90
52415;DHT22;38340;52.964;6.086;2024-01-11T13:05:37;1.10;99.90
52415;DHT22;38340;52.964;6.086;2024-01-11T13:08:07;1.20;99.90
52415;DHT22;38340;52.964;6.086;2024-01-11T13:10:34;1.20;99.90
52415;DHT22;38340;52.964;6.086;2024-01-11T13:13:01;1.20;99.90
52415;DHT22;38340;52.964;6.086;2024-01-11T13:15:28;1.20;99.90
52415;DHT22;38340;52.964;6.086;2024-01-11T13:17:57;1.20;99.90
52415;DHT22;38340;52.964;6.086;2024-01-11T13:20:23;1.30;99.90
52415;DHT22;38340;52.964;6.086;2024-01-11T13:23:12;1.20;99.90
52415;DHT22;38340;52.964;6.086;2024-01-11T13:25:40;1.30;99.90
52415;DHT22;38340;52.964;6.086;2024-01-11T13:28:06;1.30;99.90
52415;DHT22;38340;52.964;6.086;2024-01-11T13:30:32;1.30;99.90
52415;DHT22;38340;52.964;6.086;2024-01-11T13:32:58;1.30;99.90
52415;DHT22;38340;52.964;6.086;2024-01-11T13:35:24;1.40;99.90
52415;DHT22;38340;52.964;6.086;2024-01-11T13:37:50;1.40;99.90
52415;DHT22;38340;52.964;6.086;2024-01-11T13:40:15;1.40;99.90
52415;DHT22;38340;52.964;6.086;2024-01-11T13:42:41;1.40;99.90
52415;DHT22;38340;52.964;6.086;2024-01-11T13:45:09;1.40;99.90
52415;DHT22;38340;52.964;6.086;2024-01-11T13:47:38;1.40;99.90
52415;DHT22;38340;52.964;6.086;2024-01-11T13:50:04;1.40;99.90
52415;DHT22;38340;52.964;6.086;2024-01-11T13:52:29;1.40;99.90
52415;DHT22;38340;52.964;6.086;2024-01-11T13:54:55;1.30;99.90
52415;DHT22;38340;52.964;6.086;2024-01-11T13:57:21;1.40;99.90
52415;DHT22;38340;52.964;6.086;2024-01-11T13:59:47;1.40;99.90
52415;DHT22;38340;52.964;6.086;2024-01-11T14:02:13;1.40;99.90
52415;DHT22;38340;52.964;6.086;2024-01-11T14:04:38;1.30;99.90
52415;DHT22;38340;52.964;6.086;2024-01-11T14:07:05;1.40;99.90
52415;DHT22;38340;52.964;6.086;2024-01-11T14:09:31;1.40;99.90
52415;DHT22;38340;52.964;6.086;2024-01-11T14:11:56;1.40;99.90
52415;DHT22;38340;52.964;6.086;2024-01-11T14:14:22;1.30;99.90
52415;DHT22;38340;52.964;6.086;2024-01-11T14:16:48;1.40;99.90
52415;DHT22;38340;52.964;6.086;2024-01-11T14:19:14;1.40;99.90
52415;DHT22;38340;52.964;6.086;2024-01-11T14:21:40;1.40;99.90
52415;DHT22;38340;52.964;6.086;2024-01-11T14:24:05;1.40;99.90
52415;DHT22;38340;52.964;6.086;2024-01-11T14:26:32;1.40;99.90
52415;DHT22;38340;52.964;6.086;2024-01-11T14:28:58;1.40;99.90
52415;DHT22;38340;52.964;6.086;2024-01-11T14:31:24;1.40;99.90
52415;DHT22;38340;52.964;6.086;2024-01-11T14:33:50;1.50;99.90
52415;DHT22;38340;52.964;6.086;2024-01-11T14:36:15;1.50;99.90
52415;DHT22;38340;52.964;6.086;2024-01-11T14:38:42;1.50;99.90
52415;DHT22;38340;52.964;6.086;2024-01-11T14:41:09;1.50;99.90
52415;DHT22;38340;52.964;6.086;2024-01-11T14:43:37;1.50;99.90
52415;DHT22;38340;52.964;6.086;2024-01-11T14:46:04;1.50;99.90
52415;DHT22;38340;52.964;6.086;2024-01-11T14:48:30;1.50;99.90
52415;DHT22;38340;52.964;6.086;2024-01-11T14:50:59;1.50;99.90
52415;DHT22;38340;52.964;6.086;2024-01-11T14:53:25;1.50;99.90
52415;DHT22;38340;52.964;6.086;2024-01-11T14:55:50;1.50;99.90
52415;DHT22;38340;52.964;6.086;2024-01-11T14:58:16;1.60;99.90
52415;DHT22;38340;52.964;6.086;2024-01-11T15:00:42;1.60;99.90
52415;DHT22;38340;52.964;6.086;2024-01-11T15:03:08;1.60;99.90
52415;DHT22;38340;52.964;6.086;2024-01-11T15:05:33;1.60;99.90
52415;DHT22;38340;52.964;6.086;2024-01-11T15:07:59;1.60;99.90
52415;DHT22;38340;52.964;6.086;2024-01-11T15:10:25;1.60;99.90
52415;DHT22;38340;52.964;6.086;2024-01-11T15:12:51;1.60;99.90
52415;DHT22;38340;52.964;6.086;2024-01-11T15:15:17;1.60;99.90
52415;DHT22;38340;52.964;6.086;2024-01-11T15:17:44;1.60;99.90
52415;DHT22;38340;52.964;6.086;2024-01-11T15:20:10;1.60;99.90
52415;DHT22;38340;52.964;6.086;2024-01-11T15:22:35;1.60;99.90
52415;DHT22;38340;52.964;6.086;2024-01-11T15:25:01;1.50;99.90
52415;DHT22;38340;52.964;6.086;2024-01-11T15:27:27;1.60;99.90
52415;DHT22;38340;52.964;6.086;2024-01-11T15:29:53;1.60;99.90
52415;DHT22;38340;52.964;6.086;2024-01-11T15:32:18;1.60;99.90